Terminal Aerodrome Forecast
Issued by NWS Riverton, WY

Home | Current Version | Previous Version | Text Only | Print | Product List | Glossary On
Versions: 1 2 3 4 5 6 7 8 9 10 11 12
000
FTUS45 KRIW 312323
TAFRIW
TAF
KRIW 312323Z 0100/0124 10007KT P6SM FEW120 SCT250
     FM010800 29007KT P6SM FEW140 SCT250
     FM012000 25011G18KT P6SM SCT100=

USA.gov is the U.S. government's official web portal to all federal, state and local government web resources and services.